Time;durP1;ratioP1;P1;durP2;ratioP2;P2;SDS_P1;SDS_P2;PMS_P1;PMS_P2;Temp;Humidity;BMP_temperature;BMP_pressure;BME280_temperature;BME280_humidity;BME280_pressure;Samples;Min_cycle;Max_cycle;Signal;HPM_P1;HPM_P2
2021/05/05 00:00:36;;;;;;;2.53;1.00;;;;;;;;;;5015577;28;20212;-43
2021/05/05 00:03:01;;;;;;;1.50;1.23;;;;;;;;;;5010926;28;20591;-43
2021/05/05 00:05:27;;;;;;;1.85;1.10;;;;;;;;;;5008544;28;20192;-44
2021/05/05 00:07:52;;;;;;;1.25;1.20;;;;;;;;;;5006874;28;20168;-44
2021/05/05 00:10:17;;;;;;;1.43;1.20;;;;;;;;;;5008629;28;20569;-44
2021/05/05 00:12:43;;;;;;;3.23;1.20;;;;;;;;;;5007040;28;20223;-44
2021/05/05 00:15:13;;;;;;;1.00;0.90;;;;;;;;;;5021014;28;20245;-44
2021/05/05 00:17:39;;;;;;;1.53;1.43;;;;;;;;;;5010400;28;20683;-44
2021/05/05 00:20:05;;;;;;;1.60;1.50;;;;;;;;;;5008697;28;20693;-44
2021/05/05 00:22:31;;;;;;;2.50;1.73;;;;;;;;;;5008487;28;20318;-43
2021/05/05 00:24:56;;;;;;;2.33;1.90;;;;;;;;;;5005874;28;20652;-44
2021/05/05 00:27:21;;;;;;;2.23;1.20;;;;;;;;;;5001704;28;20170;-43
2021/05/05 00:29:46;;;;;;;1.45;1.30;;;;;;;;;;5009172;28;20252;-44
2021/05/05 00:32:11;;;;;;;1.70;1.40;;;;;;;;;;5010211;28;20203;-44
2021/05/05 00:34:36;;;;;;;1.98;1.48;;;;;;;;;;5010404;28;20184;-44
2021/05/05 00:37:01;;;;;;;1.33;1.23;;;;;;;;;;5003413;28;20206;-44
2021/05/05 00:39:27;;;;;;;2.35;1.65;;;;;;;;;;5009767;28;20189;-44
2021/05/05 00:41:52;;;;;;;1.77;1.50;;;;;;;;;;5008561;28;20719;-44
2021/05/05 00:44:19;;;;;;;2.43;1.70;;;;;;;;;;5010408;28;20207;-44
2021/05/05 00:46:44;;;;;;;2.03;1.30;;;;;;;;;;5010059;28;20173;-45
2021/05/05 00:49:09;;;;;;;3.53;1.80;;;;;;;;;;5008954;28;20590;-45
2021/05/05 00:51:34;;;;;;;1.75;1.35;;;;;;;;;;5001049;28;20669;-42
2021/05/05 00:53:59;;;;;;;2.63;1.87;;;;;;;;;;4997995;28;20179;-43
2021/05/05 00:56:25;;;;;;;2.80;1.57;;;;;;;;;;5010599;28;20175;-43
2021/05/05 00:58:50;;;;;;;7.03;1.60;;;;;;;;;;5008349;28;20193;-43
2021/05/05 01:01:15;;;;;;;2.90;2.00;;;;;;;;;;5009568;28;20205;-43
2021/05/05 01:03:40;;;;;;;2.03;1.27;;;;;;;;;;5010827;28;20183;-44
2021/05/05 01:06:05;;;;;;;1.53;1.43;;;;;;;;;;5007335;28;20174;-44
2021/05/05 01:08:31;;;;;;;6.57;1.87;;;;;;;;;;5008116;28;20181;-43
2021/05/05 01:10:57;;;;;;;2.10;1.67;;;;;;;;;;5007427;28;20264;-43
2021/05/05 01:13:22;;;;;;;1.70;1.60;;;;;;;;;;5007990;28;20741;-43
2021/05/05 01:15:47;;;;;;;1.63;1.50;;;;;;;;;;5009443;28;20646;-44
2021/05/05 01:18:12;;;;;;;3.17;2.03;;;;;;;;;;5009149;28;20270;-44
2021/05/05 01:20:38;;;;;;;2.40;1.93;;;;;;;;;;5006453;28;20208;-44
2021/05/05 01:23:03;;;;;;;4.00;1.97;;;;;;;;;;5004470;28;20188;-44
2021/05/05 01:25:29;;;;;;;3.50;1.70;;;;;;;;;;4999974;28;20188;-44
2021/05/05 01:27:54;;;;;;;2.00;1.57;;;;;;;;;;5008590;28;20266;-44
2021/05/05 01:30:20;;;;;;;2.07;1.60;;;;;;;;;;5012348;28;20203;-45
2021/05/05 01:32:46;;;;;;;3.43;1.63;;;;;;;;;;5009015;28;20769;-45
2021/05/05 01:35:11;;;;;;;3.83;1.77;;;;;;;;;;5009472;28;21068;-45
2021/05/05 01:37:40;;;;;;;2.00;1.90;;;;;;;;;;5001543;28;20184;-44
2021/05/05 01:40:05;;;;;;;1.70;1.60;;;;;;;;;;5005767;28;20201;-45
2021/05/05 01:42:30;;;;;;;4.97;2.10;;;;;;;;;;5007246;28;20629;-45
2021/05/05 01:44:57;;;;;;;2.43;2.00;;;;;;;;;;5007642;28;20777;-45
2021/05/05 01:47:22;;;;;;;2.47;1.83;;;;;;;;;;5008930;28;20548;-46
2021/05/05 01:49:47;;;;;;;3.00;1.80;;;;;;;;;;5007860;28;21134;-44
2021/05/05 01:52:13;;;;;;;3.63;1.70;;;;;;;;;;4997541;28;20178;-44
2021/05/05 01:54:39;;;;;;;2.33;1.97;;;;;;;;;;5006162;28;20704;-45
2021/05/05 01:57:23;;;;;;;2.30;1.90;;;;;;;;;;5005965;28;21154;-44
2021/05/05 01:59:51;;;;;;;4.17;2.00;;;;;;;;;;5016186;28;20576;-45
2021/05/05 02:02:16;;;;;;;3.53;1.93;;;;;;;;;;5010104;28;20614;-44
2021/05/05 02:04:41;;;;;;;2.20;2.00;;;;;;;;;;5007933;28;20645;-44
2021/05/05 02:07:06;;;;;;;2.73;1.90;;;;;;;;;;5008705;28;20185;-44
2021/05/05 02:09:32;;;;;;;4.05;2.15;;;;;;;;;;5007478;28;20274;-45
2021/05/05 02:11:57;;;;;;;2.30;1.87;;;;;;;;;;5006866;28;20239;-45
2021/05/05 02:14:22;;;;;;;1.88;1.77;;;;;;;;;;5010026;28;20239;-45
2021/05/05 02:16:52;;;;;;;3.00;2.27;;;;;;;;;;5008449;28;20182;-44
2021/05/05 02:19:17;;;;;;;2.83;2.10;;;;;;;;;;5007680;28;20659;-45
2021/05/05 02:21:43;;;;;;;3.05;2.00;;;;;;;;;;5008710;28;21156;-45
2021/05/05 02:24:08;;;;;;;1.80;1.70;;;;;;;;;;5000630;28;20665;-44
2021/05/05 02:26:33;;;;;;;4.13;2.20;;;;;;;;;;5007092;28;20225;-45
2021/05/05 02:28:58;;;;;;;5.77;2.03;;;;;;;;;;5006311;28;20176;-43
2021/05/05 02:31:24;;;;;;;3.53;2.25;;;;;;;;;;5027741;28;20446;-43
2021/05/05 02:33:50;;;;;;;2.13;1.70;;;;;;;;;;5010465;28;20183;-44
2021/05/05 02:36:15;;;;;;;3.93;2.00;;;;;;;;;;5008207;28;21149;-44
2021/05/05 02:38:40;;;;;;;2.22;1.80;;;;;;;;;;5002803;28;20614;-43
2021/05/05 02:41:06;;;;;;;2.53;2.33;;;;;;;;;;5008688;28;20193;-44
2021/05/05 02:43:31;;;;;;;1.97;1.87;;;;;;;;;;5008041;28;20188;-44
2021/05/05 02:45:56;;;;;;;2.30;2.10;;;;;;;;;;5012024;28;20183;-44
2021/05/05 02:48:21;;;;;;;3.45;2.17;;;;;;;;;;5010609;28;20206;-45
2021/05/05 02:50:47;;;;;;;3.60;1.90;;;;;;;;;;5006167;28;20605;-45
2021/05/05 02:53:12;;;;;;;2.10;1.90;;;;;;;;;;5008163;28;20285;-45
2021/05/05 02:55:37;;;;;;;3.83;3.17;;;;;;;;;;5006516;28;20198;-45
2021/05/05 02:58:02;;;;;;;5.00;3.45;;;;;;;;;;5009019;28;20195;-45
2021/05/05 03:00:27;;;;;;;2.83;2.20;;;;;;;;;;5011338;28;20196;-45
2021/05/05 03:02:52;;;;;;;2.90;2.67;;;;;;;;;;5012609;28;20703;-45
2021/05/05 03:05:18;;;;;;;2.10;1.90;;;;;;;;;;5011719;28;20645;-45
2021/05/05 03:07:43;;;;;;;1.60;1.50;;;;;;;;;;5011145;28;20735;-44
2021/05/05 03:10:09;;;;;;;2.37;2.17;;;;;;;;;;5006883;28;20681;-45
2021/05/05 03:12:34;;;;;;;5.80;2.00;;;;;;;;;;5009992;28;20319;-44
2021/05/05 03:14:59;;;;;;;2.23;2.00;;;;;;;;;;5011529;28;20263;-44
2021/05/05 03:17:24;;;;;;;3.03;1.80;;;;;;;;;;5011712;28;20177;-44
2021/05/05 03:19:51;;;;;;;1.60;1.40;;;;;;;;;;5011768;28;20241;-45
2021/05/05 03:22:16;;;;;;;3.27;2.10;;;;;;;;;;5010971;28;20311;-45
2021/05/05 03:24:41;;;;;;;2.20;1.83;;;;;;;;;;5004278;28;21048;-45
2021/05/05 03:27:06;;;;;;;3.53;2.17;;;;;;;;;;5009238;28;20181;-45
2021/05/05 03:29:31;;;;;;;2.43;2.20;;;;;;;;;;5010227;28;20179;-45
2021/05/05 03:31:58;;;;;;;1.70;1.60;;;;;;;;;;5009525;28;20619;-44
2021/05/05 03:34:23;;;;;;;1.80;1.70;;;;;;;;;;5010457;28;20784;-44
2021/05/05 03:36:48;;;;;;;2.25;2.00;;;;;;;;;;5010802;28;21264;-45
2021/05/05 03:39:13;;;;;;;3.20;2.10;;;;;;;;;;5009412;28;20182;-45
2021/05/05 03:41:38;;;;;;;2.28;2.08;;;;;;;;;;5007125;28;20335;-45
2021/05/05 03:44:05;;;;;;;3.22;2.00;;;;;;;;;;5009237;28;20177;-44
2021/05/05 03:46:30;;;;;;;3.60;2.37;;;;;;;;;;5006918;28;20284;-45
2021/05/05 03:48:55;;;;;;;1.80;1.70;;;;;;;;;;5003173;28;21181;-45
2021/05/05 03:51:20;;;;;;;2.10;1.70;;;;;;;;;;5003841;28;20189;-44
2021/05/05 03:53:46;;;;;;;2.50;2.03;;;;;;;;;;4999156;28;20182;-43
2021/05/05 03:56:12;;;;;;;3.83;2.10;;;;;;;;;;5005444;28;20333;-43
2021/05/05 03:58:37;;;;;;;1.90;1.80;;;;;;;;;;5005556;28;20207;-43
2021/05/05 04:01:02;;;;;;;1.70;1.60;;;;;;;;;;5006177;28;20749;-44
2021/05/05 04:03:27;;;;;;;3.93;2.37;;;;;;;;;;5007723;28;20207;-44
2021/05/05 04:05:52;;;;;;;2.63;2.10;;;;;;;;;;5001734;28;20191;-46
2021/05/05 04:08:18;;;;;;;5.20;2.00;;;;;;;;;;5003991;28;20529;-44
2021/05/05 04:10:43;;;;;;;1.70;1.60;;;;;;;;;;5002657;28;20212;-44
2021/05/05 04:13:08;;;;;;;2.63;1.93;;;;;;;;;;4999700;28;20227;-45
2021/05/05 04:15:33;;;;;;;2.37;1.70;;;;;;;;;;5009495;28;20591;-44
2021/05/05 04:17:58;;;;;;;3.63;1.80;;;;;;;;;;5010313;28;20242;-43
2021/05/05 04:20:24;;;;;;;2.95;1.88;;;;;;;;;;5008646;28;20202;-44
2021/05/05 04:22:49;;;;;;;3.87;2.37;;;;;;;;;;5007206;28;20185;-44
2021/05/05 04:25:15;;;;;;;2.27;1.80;;;;;;;;;;4999201;28;20181;-44
2021/05/05 04:27:41;;;;;;;1.70;1.60;;;;;;;;;;5007024;28;20263;-43
2021/05/05 04:30:07;;;;;;;3.83;2.00;;;;;;;;;;5001465;28;20177;-44
2021/05/05 04:32:33;;;;;;;4.20;2.60;;;;;;;;;;5000619;28;20692;-43
2021/05/05 04:34:58;;;;;;;3.87;2.03;;;;;;;;;;5001144;28;20180;-43
2021/05/05 04:37:23;;;;;;;3.08;1.92;;;;;;;;;;4999212;28;20292;-43
2021/05/05 04:39:48;;;;;;;2.15;1.88;;;;;;;;;;5001984;28;20188;-44
2021/05/05 04:42:13;;;;;;;2.17;1.90;;;;;;;;;;5002820;28;20181;-43
2021/05/05 04:44:38;;;;;;;2.70;1.97;;;;;;;;;;5006775;28;20187;-43
2021/05/05 04:47:04;;;;;;;3.60;1.90;;;;;;;;;;5007174;28;20235;-43
2021/05/05 04:49:29;;;;;;;3.00;1.80;;;;;;;;;;5002714;28;20291;-44
2021/05/05 04:51:54;;;;;;;3.67;2.00;;;;;;;;;;4997587;28;20189;-43
2021/05/05 04:54:19;;;;;;;3.58;2.15;;;;;;;;;;4998410;28;20635;-44
2021/05/05 04:56:44;;;;;;;1.70;1.60;;;;;;;;;;5006598;28;20187;-44
2021/05/05 04:59:10;;;;;;;3.67;2.10;;;;;;;;;;5005935;28;20183;-44
2021/05/05 05:01:35;;;;;;;2.03;1.83;;;;;;;;;;4998489;28;20367;-44
2021/05/05 05:04:00;;;;;;;2.60;1.80;;;;;;;;;;5005486;28;20180;-44
2021/05/05 05:06:25;;;;;;;1.83;1.73;;;;;;;;;;4994566;28;20640;-44
2021/05/05 05:08:50;;;;;;;3.53;2.40;;;;;;;;;;4989375;28;20211;-45
2021/05/05 05:11:15;;;;;;;3.93;1.80;;;;;;;;;;4997774;28;20246;-45
2021/05/05 05:13:41;;;;;;;2.23;2.00;;;;;;;;;;4986563;28;20186;-45
2021/05/05 05:16:06;;;;;;;1.93;1.70;;;;;;;;;;5000161;28;20191;-43
2021/05/05 05:18:32;;;;;;;1.80;1.53;;;;;;;;;;5000988;28;20189;-44
2021/05/05 05:20:57;;;;;;;4.10;2.30;;;;;;;;;;5001631;28;20430;-44
2021/05/05 05:23:22;;;;;;;2.37;2.17;;;;;;;;;;4996947;28;20169;-44
2021/05/05 05:25:47;;;;;;;2.83;2.10;;;;;;;;;;4989205;28;20174;-44
2021/05/05 05:28:12;;;;;;;3.80;2.10;;;;;;;;;;4998021;28;20238;-44
2021/05/05 05:30:38;;;;;;;2.70;1.70;;;;;;;;;;5005206;28;20212;-44
2021/05/05 05:33:03;;;;;;;2.80;2.07;;;;;;;;;;5001838;28;20188;-44
2021/05/05 05:35:28;;;;;;;5.47;2.90;;;;;;;;;;4999476;28;20185;-44
2021/05/05 05:37:54;;;;;;;4.10;2.40;;;;;;;;;;4999149;28;20629;-43
2021/05/05 05:40:19;;;;;;;2.77;2.53;;;;;;;;;;5005507;28;20203;-43
2021/05/05 05:42:44;;;;;;;2.63;1.63;;;;;;;;;;5004984;28;20169;-45
2021/05/05 05:45:10;;;;;;;3.07;1.80;;;;;;;;;;5001086;28;20211;-43
2021/05/05 05:47:35;;;;;;;4.63;2.23;;;;;;;;;;4999408;28;20551;-44
2021/05/05 05:50:00;;;;;;;2.53;1.55;;;;;;;;;;5003377;28;20176;-45
2021/05/05 05:52:25;;;;;;;4.32;2.40;;;;;;;;;;5004233;28;20178;-44
2021/05/05 05:54:50;;;;;;;2.37;1.90;;;;;;;;;;5006402;28;20538;-45
2021/05/05 05:57:16;;;;;;;3.63;1.90;;;;;;;;;;4990416;28;20305;-44
2021/05/05 05:59:42;;;;;;;2.20;1.73;;;;;;;;;;5006336;28;20192;-44
2021/05/05 06:02:08;;;;;;;2.17;1.97;;;;;;;;;;5007302;28;20647;-44
2021/05/05 06:04:33;;;;;;;2.20;1.90;;;;;;;;;;5005397;28;20674;-45
2021/05/05 06:06:58;;;;;;;2.23;2.03;;;;;;;;;;5005280;28;20177;-44
2021/05/05 06:09:23;;;;;;;2.50;2.30;;;;;;;;;;5005296;28;20592;-44
2021/05/05 06:11:48;;;;;;;2.00;1.70;;;;;;;;;;5004714;28;20593;-44
2021/05/05 06:14:14;;;;;;;2.42;2.08;;;;;;;;;;5005675;28;20883;-44
2021/05/05 06:16:40;;;;;;;1.93;1.70;;;;;;;;;;4995151;28;20205;-44
2021/05/05 06:19:05;;;;;;;1.80;1.67;;;;;;;;;;5005179;28;20859;-44
2021/05/05 06:21:30;;;;;;;3.20;2.20;;;;;;;;;;5004833;28;20205;-44
2021/05/05 06:23:55;;;;;;;2.10;1.90;;;;;;;;;;5005422;28;20223;-44
2021/05/05 06:26:21;;;;;;;2.53;1.70;;;;;;;;;;5005168;28;20184;-45
2021/05/05 06:28:46;;;;;;;2.00;1.60;;;;;;;;;;5003828;28;20192;-45
2021/05/05 06:31:11;;;;;;;1.77;1.60;;;;;;;;;;5005389;28;20942;-44
2021/05/05 06:33:36;;;;;;;2.67;2.13;;;;;;;;;;5005015;28;20193;-46
2021/05/05 06:36:01;;;;;;;1.90;1.80;;;;;;;;;;5005467;28;20175;-46
2021/05/05 06:38:27;;;;;;;4.13;1.93;;;;;;;;;;5005100;28;20195;-44
2021/05/05 06:40:52;;;;;;;2.30;2.10;;;;;;;;;;5012350;28;20239;-45
2021/05/05 06:43:17;;;;;;;1.60;1.50;;;;;;;;;;5002030;28;20175;-45
2021/05/05 06:45:42;;;;;;;2.37;2.10;;;;;;;;;;5004603;28;20183;-44
2021/05/05 06:48:07;;;;;;;2.73;1.97;;;;;;;;;;5003501;28;20175;-44
2021/05/05 06:50:33;;;;;;;2.30;2.10;;;;;;;;;;5003307;28;20183;-44
2021/05/05 06:52:58;;;;;;;2.08;1.80;;;;;;;;;;4999707;28;20661;-45
2021/05/05 06:55:23;;;;;;;2.13;1.70;;;;;;;;;;4996314;28;21483;-44
2021/05/05 06:57:50;;;;;;;2.47;1.87;;;;;;;;;;4998655;28;20696;-44
2021/05/05 07:00:15;;;;;;;3.17;2.10;;;;;;;;;;5000504;28;20617;-43
2021/05/05 07:02:40;;;;;;;2.13;1.70;;;;;;;;;;4998584;28;20641;-44
2021/05/05 07:05:05;;;;;;;3.27;2.00;;;;;;;;;;5002730;28;20237;-44
2021/05/05 07:07:31;;;;;;;2.00;1.77;;;;;;;;;;5004092;28;20180;-44
2021/05/05 07:09:56;;;;;;;2.60;1.97;;;;;;;;;;5000182;28;20198;-44
2021/05/05 07:12:22;;;;;;;2.87;1.70;;;;;;;;;;4998600;28;20233;-44
2021/05/05 07:14:47;;;;;;;2.73;1.70;;;;;;;;;;5000048;28;20222;-44
2021/05/05 07:17:12;;;;;;;1.83;1.70;;;;;;;;;;4998787;28;20174;-44
2021/05/05 07:19:37;;;;;;;2.33;1.90;;;;;;;;;;5002442;28;20183;-45
2021/05/05 07:22:02;;;;;;;3.47;1.60;;;;;;;;;;5002270;28;20208;-43
2021/05/05 07:24:28;;;;;;;6.17;5.17;;;;;;;;;;5001799;28;20218;-44
2021/05/05 07:26:53;;;;;;;4.63;4.10;;;;;;;;;;4999078;28;20189;-44
2021/05/05 07:29:19;;;;;;;4.43;4.07;;;;;;;;;;5001955;28;20574;-43
2021/05/05 07:31:44;;;;;;;2.73;2.07;;;;;;;;;;5002033;28;20203;-44
2021/05/05 07:34:10;;;;;;;4.35;2.80;;;;;;;;;;5005415;28;20195;-43
2021/05/05 07:36:35;;;;;;;2.13;2.00;;;;;;;;;;5007673;28;20256;-44
2021/05/05 07:42:02;;;;;;;3.17;2.27;;;;;;;;;;5001831;28;20253;-43
2021/05/05 07:47:02;;;;;;;4.00;2.50;;;;;;;;;;5003683;28;21134;-43
2021/05/05 07:49:29;;;;;;;3.23;2.23;;;;;;;;;;5007163;28;20574;-44
2021/05/05 07:51:54;;;;;;;2.80;2.03;;;;;;;;;;5004842;28;20617;-44
2021/05/05 07:54:21;;;;;;;1.93;1.80;;;;;;;;;;5001419;28;21134;-44
2021/05/05 07:56:47;;;;;;;2.00;1.90;;;;;;;;;;5003390;28;20649;-44
2021/05/05 07:59:12;;;;;;;3.07;2.27;;;;;;;;;;5003449;28;20576;-44
2021/05/05 08:01:37;;;;;;;3.13;2.03;;;;;;;;;;5007346;28;20693;-43
2021/05/05 08:04:03;;;;;;;2.10;1.90;;;;;;;;;;5002771;28;20175;-45
2021/05/05 08:06:28;;;;;;;3.47;2.10;;;;;;;;;;5001484;28;20174;-44
2021/05/05 08:08:54;;;;;;;2.53;1.80;;;;;;;;;;5001414;28;20171;-43
2021/05/05 08:11:19;;;;;;;2.10;1.90;;;;;;;;;;5004696;28;20191;-44
2021/05/05 08:13:47;;;;;;;2.10;1.90;;;;;;;;;;5006234;28;20323;-45
2021/05/05 08:16:12;;;;;;;3.30;1.90;;;;;;;;;;5003412;28;20176;-45
2021/05/05 08:18:37;;;;;;;2.03;1.93;;;;;;;;;;5001332;28;21165;-44
2021/05/05 08:21:05;;;;;;;2.17;1.97;;;;;;;;;;5001039;28;20208;-44
2021/05/05 08:23:30;;;;;;;1.83;1.70;;;;;;;;;;5004401;28;20185;-44
2021/05/05 08:25:55;;;;;;;2.27;2.07;;;;;;;;;;5004755;28;20704;-44
2021/05/05 08:28:20;;;;;;;2.33;2.13;;;;;;;;;;5005178;28;20253;-45
2021/05/05 08:30:46;;;;;;;4.50;1.70;;;;;;;;;;5002569;28;20592;-43
2021/05/05 08:33:12;;;;;;;4.53;2.67;;;;;;;;;;5000888;28;20223;-43
2021/05/05 08:35:37;;;;;;;2.00;1.80;;;;;;;;;;5004180;28;20249;-44
2021/05/05 08:38:02;;;;;;;2.60;1.90;;;;;;;;;;5002825;28;20173;-44
2021/05/05 08:40:28;;;;;;;1.97;1.87;;;;;;;;;;5001507;28;20694;-44
2021/05/05 08:42:53;;;;;;;1.70;1.60;;;;;;;;;;5000957;28;20164;-44
2021/05/05 08:45:20;;;;;;;2.30;2.10;;;;;;;;;;5002673;28;20231;-43
2021/05/05 08:47:46;;;;;;;1.70;1.60;;;;;;;;;;5003656;28;20668;-44
2021/05/05 08:50:12;;;;;;;2.10;1.80;;;;;;;;;;5005910;28;20581;-44
2021/05/05 08:52:38;;;;;;;5.07;2.40;;;;;;;;;;5002286;28;21324;-45
2021/05/05 08:55:04;;;;;;;5.63;2.23;;;;;;;;;;5000386;28;20575;-45
2021/05/05 08:57:30;;;;;;;2.50;2.30;;;;;;;;;;5000422;28;20694;-45
2021/05/05 08:59:55;;;;;;;2.70;2.50;;;;;;;;;;5001783;28;20674;-45
2021/05/05 09:02:20;;;;;;;2.67;2.30;;;;;;;;;;5005998;28;20196;-44
2021/05/05 09:04:58;;;;;;;2.40;1.67;;;;;;;;;;5006125;28;20246;-45
2021/05/05 09:07:27;;;;;;;4.27;2.37;;;;;;;;;;5000511;28;20576;-44
2021/05/05 09:09:52;;;;;;;5.47;2.60;;;;;;;;;;4999773;28;20598;-45
2021/05/05 09:12:25;;;;;;;7.63;2.75;;;;;;;;;;5003897;28;21205;-45
2021/05/05 09:14:53;;;;;;;2.10;2.00;;;;;;;;;;5005778;28;20184;-44
2021/05/05 09:17:19;;;;;;;2.40;2.20;;;;;;;;;;5001887;28;20998;-44
2021/05/05 09:19:44;;;;;;;3.50;2.20;;;;;;;;;;5001146;28;21200;-43
2021/05/05 09:22:09;;;;;;;2.45;1.73;;;;;;;;;;5000331;28;20634;-44
2021/05/05 09:24:38;;;;;;;3.38;1.88;;;;;;;;;;5001873;28;20655;-44
2021/05/05 09:27:07;;;;;;;2.63;2.23;;;;;;;;;;5005336;28;20176;-43
2021/05/05 09:29:38;;;;;;;6.23;2.33;;;;;;;;;;5003081;28;20602;-43
2021/05/05 09:32:04;;;;;;;3.70;2.23;;;;;;;;;;4998831;28;20637;-43
2021/05/05 09:34:29;;;;;;;1.90;1.80;;;;;;;;;;4999498;28;20946;-43
2021/05/05 09:36:56;;;;;;;5.93;3.70;;;;;;;;;;5003577;28;20187;-43
2021/05/05 09:39:26;;;;;;;3.13;2.30;;;;;;;;;;5004875;28;20215;-44
2021/05/05 09:41:51;;;;;;;2.90;2.03;;;;;;;;;;5001370;28;21021;-45
2021/05/05 09:44:16;;;;;;;4.25;2.70;;;;;;;;;;5001579;28;20661;-45
2021/05/05 09:49:18;;;;;;;7.50;5.10;;;;;;;;;;4999362;28;20662;-44
2021/05/05 09:51:46;;;;;;;2.97;2.77;;;;;;;;;;5004426;28;20589;-44
2021/05/05 09:54:20;;;;;;;5.27;3.37;;;;;;;;;;5001072;28;20587;-45
2021/05/05 09:56:45;;;;;;;3.47;3.17;;;;;;;;;;5000124;28;20626;-44
2021/05/05 09:59:10;;;;;;;4.40;3.60;;;;;;;;;;4998845;28;20626;-44
2021/05/05 10:01:35;;;;;;;8.15;6.63;;;;;;;;;;5001120;28;20324;-43
2021/05/05 10:04:03;;;;;;;7.03;5.90;;;;;;;;;;5003039;28;20260;-44
2021/05/05 10:06:32;;;;;;;2.87;2.40;;;;;;;;;;5004429;28;20181;-45
2021/05/05 10:08:59;;;;;;;4.37;3.20;;;;;;;;;;4998329;28;20625;-44
2021/05/05 10:11:28;;;;;;;3.50;2.20;;;;;;;;;;4999387;28;21005;-43
2021/05/05 10:13:55;;;;;;;2.47;2.27;;;;;;;;;;4999257;28;21137;-43
2021/05/05 10:16:21;;;;;;;3.80;2.20;;;;;;;;;;5002896;28;20933;-44
2021/05/05 10:18:47;;;;;;;2.60;2.33;;;;;;;;;;5004355;28;20603;-43
2021/05/05 10:21:13;;;;;;;2.10;2.00;;;;;;;;;;5001031;28;20310;-44
2021/05/05 10:23:39;;;;;;;4.73;3.30;;;;;;;;;;4999582;28;20177;-45
2021/05/05 10:26:04;;;;;;;4.23;3.00;;;;;;;;;;4998792;28;20588;-44
2021/05/05 10:28:30;;;;;;;9.30;8.03;;;;;;;;;;5002196;28;20539;-44
2021/05/05 10:30:55;;;;;;;6.47;4.10;;;;;;;;;;5002686;28;20268;-43
2021/05/05 10:33:25;;;;;;;5.50;4.40;;;;;;;;;;5000725;28;20268;-44
2021/05/05 10:35:51;;;;;;;7.53;5.03;;;;;;;;;;5000958;28;20183;-43
2021/05/05 10:38:35;;;;;;;5.20;2.87;;;;;;;;;;4998757;28;20602;-43
2021/05/05 10:41:06;;;;;;;3.23;2.37;;;;;;;;;;5002322;28;20196;-43
2021/05/05 10:43:44;;;;;;;3.43;3.13;;;;;;;;;;5002230;28;20623;-44
2021/05/05 10:46:30;;;;;;;4.80;3.80;;;;;;;;;;4998706;28;20600;-44
2021/05/05 10:49:03;;;;;;;2.97;2.67;;;;;;;;;;5000698;28;20599;-44
2021/05/05 10:51:48;;;;;;;8.43;7.43;;;;;;;;;;5004219;28;20614;-44
2021/05/05 10:54:14;;;;;;;3.50;2.57;;;;;;;;;;5002268;28;20634;-45
2021/05/05 10:56:40;;;;;;;2.57;2.37;;;;;;;;;;5017597;28;20618;-44
2021/05/05 10:59:07;;;;;;;4.53;2.53;;;;;;;;;;5018451;28;20597;-44
2021/05/05 11:01:35;;;;;;;4.90;2.30;;;;;;;;;;5017443;28;21387;-44
2021/05/05 11:04:01;;;;;;;3.27;2.10;;;;;;;;;;5023192;28;20586;-44
2021/05/05 11:06:29;;;;;;;2.60;2.40;;;;;;;;;;5028320;28;20922;-44
2021/05/05 11:08:54;;;;;;;2.00;1.80;;;;;;;;;;5022858;28;20184;-45
2021/05/05 11:11:35;;;;;;;3.30;2.03;;;;;;;;;;5023662;28;20671;-44
2021/05/05 11:14:00;;;;;;;3.10;2.53;;;;;;;;;;5022153;28;20262;-45
2021/05/05 11:16:45;;;;;;;2.80;2.23;;;;;;;;;;5024666;28;21004;-43
2021/05/05 11:19:30;;;;;;;2.53;1.93;;;;;;;;;;5027681;28;20179;-44
2021/05/05 11:21:55;;;;;;;4.23;2.07;;;;;;;;;;5021986;28;20653;-44
2021/05/05 11:24:26;;;;;;;3.50;2.15;;;;;;;;;;5022144;28;20586;-45
2021/05/05 11:26:51;;;;;;;11.43;3.10;;;;;;;;;;5021705;28;20208;-45
2021/05/05 11:29:28;;;;;;;2.80;2.00;;;;;;;;;;4992866;28;20707;-44
2021/05/05 11:31:53;;;;;;;1.80;1.70;;;;;;;;;;4985975;28;20196;-44
2021/05/05 11:34:18;;;;;;;1.80;1.70;;;;;;;;;;4994547;28;20680;-43
2021/05/05 11:36:50;;;;;;;2.40;1.90;;;;;;;;;;5002582;28;20185;-45
2021/05/05 11:39:22;;;;;;;2.77;2.03;;;;;;;;;;4995575;28;20701;-45
2021/05/05 11:41:58;;;;;;;2.17;1.97;;;;;;;;;;4987666;28;20985;-45
2021/05/05 11:44:32;;;;;;;3.20;1.90;;;;;;;;;;4998073;28;20598;-44
2021/05/05 11:46:58;;;;;;;2.57;1.93;;;;;;;;;;4996680;28;21072;-44
2021/05/05 11:49:33;;;;;;;2.90;2.50;;;;;;;;;;4984594;28;21010;-45
2021/05/05 11:52:00;;;;;;;2.73;2.10;;;;;;;;;;4987760;28;20966;-42
2021/05/05 11:54:28;;;;;;;2.70;2.10;;;;;;;;;;5002220;28;20614;-43
2021/05/05 11:57:05;;;;;;;3.40;2.40;;;;;;;;;;5003057;28;20625;-44
2021/05/05 11:59:31;;;;;;;2.43;2.00;;;;;;;;;;4998541;28;20604;-44
2021/05/05 12:02:03;;;;;;;2.03;1.83;;;;;;;;;;5013889;28;21218;-44
2021/05/05 12:04:35;;;;;;;2.40;2.20;;;;;;;;;;5003451;28;20268;-44
2021/05/05 12:07:01;;;;;;;2.10;1.90;;;;;;;;;;4986988;28;20612;-44
2021/05/05 12:09:31;;;;;;;1.80;1.70;;;;;;;;;;5001909;28;20603;-44
2021/05/05 12:12:13;;;;;;;1.93;1.83;;;;;;;;;;5002280;28;20757;-44
2021/05/05 12:14:39;;;;;;;1.60;1.50;;;;;;;;;;5004689;28;20617;-46
2021/05/05 12:20:04;;;;;;;2.10;1.40;;;;;;;;;;5005236;28;21186;-44
2021/05/05 12:22:30;;;;;;;1.80;1.70;;;;;;;;;;5001152;28;20705;-45
2021/05/05 12:25:05;;;;;;;2.17;1.50;;;;;;;;;;5000203;28;20733;-45
2021/05/05 12:27:30;;;;;;;4.20;1.87;;;;;;;;;;5000458;28;20631;-44
2021/05/05 12:29:59;;;;;;;3.70;1.80;;;;;;;;;;5001496;28;20665;-45
2021/05/05 12:32:39;;;;;;;1.50;1.40;;;;;;;;;;5005631;28;20193;-44
2021/05/05 12:35:05;;;;;;;1.57;1.47;;;;;;;;;;5002007;28;20617;-45
2021/05/05 12:37:30;;;;;;;3.10;1.63;;;;;;;;;;5002392;28;20661;-45
2021/05/05 12:39:55;;;;;;;2.47;1.50;;;;;;;;;;5003133;28;20300;-44
2021/05/05 12:42:20;;;;;;;1.65;1.50;;;;;;;;;;5005632;28;20242;-45
2021/05/05 12:44:45;;;;;;;1.63;1.20;;;;;;;;;;5004147;28;20163;-45
2021/05/05 12:47:14;;;;;;;1.60;1.50;;;;;;;;;;5000273;28;20716;-44
2021/05/05 12:49:40;;;;;;;1.40;1.30;;;;;;;;;;5004235;28;20709;-44
2021/05/05 12:52:06;;;;;;;1.80;1.37;;;;;;;;;;4995175;28;20617;-44
2021/05/05 12:54:42;;;;;;;5.20;2.03;;;;;;;;;;5005675;28;20711;-44
2021/05/05 12:57:14;;;;;;;7.77;2.10;;;;;;;;;;5011456;28;20656;-45
2021/05/05 12:59:40;;;;;;;2.27;1.73;;;;;;;;;;4991654;28;20648;-45
2021/05/05 13:02:05;;;;;;;9.57;2.47;;;;;;;;;;5001461;28;20725;-44
2021/05/05 13:04:33;;;;;;;2.30;2.10;;;;;;;;;;5001404;28;20197;-44
2021/05/05 13:06:58;;;;;;;8.90;5.00;;;;;;;;;;5004967;28;20193;-46
2021/05/05 13:09:24;;;;;;;7.57;2.80;;;;;;;;;;4998283;28;20589;-44
2021/05/05 13:11:52;;;;;;;5.80;3.80;;;;;;;;;;5007411;28;20231;-44
2021/05/05 13:14:59;;;;;;;8.73;3.63;;;;;;;;;;5011441;28;20186;-44
2021/05/05 13:17:46;;;;;;;5.47;2.20;;;;;;;;;;5012413;28;20638;-43
2021/05/05 13:20:28;;;;;;;5.37;2.53;;;;;;;;;;4998606;28;20597;-44
2021/05/05 13:29:30;;;;;;;2.00;1.90;;;;;;;;;;5003954;28;20589;-44
2021/05/05 13:31:40;;;;;;;1.90;1.80;;;;;;;;;;4997934;28;20991;-45
2021/05/05 13:34:07;;;;;;;4.80;3.90;;;;;;;;;;5002982;28;20596;-44
2021/05/05 13:36:42;;;;;;;1.67;1.57;;;;;;;;;;5002549;28;20607;-43
2021/05/05 13:39:07;;;;;;;2.27;2.07;;;;;;;;;;4999692;28;20929;-43
2021/05/05 13:41:32;;;;;;;9.63;7.53;;;;;;;;;;4994000;28;20636;-45
2021/05/05 13:44:03;;;;;;;5.60;4.35;;;;;;;;;;4999962;28;20264;-45
2021/05/05 13:46:36;;;;;;;5.90;4.50;;;;;;;;;;4995086;28;20179;-45
2021/05/05 13:51:27;;;;;;;13.00;8.13;;;;;;;;;;5000386;28;21196;-45
2021/05/05 13:53:52;;;;;;;2.27;1.50;;;;;;;;;;4998416;28;20181;-45
2021/05/05 13:56:21;;;;;;;3.53;2.67;;;;;;;;;;5004965;28;20180;-44
2021/05/05 13:58:48;;;;;;;2.43;2.23;;;;;;;;;;5010121;28;20181;-44
2021/05/05 14:01:13;;;;;;;1.97;1.87;;;;;;;;;;5008585;28;20668;-44
2021/05/05 14:03:38;;;;;;;2.37;2.27;;;;;;;;;;5000472;28;20643;-44
2021/05/05 14:06:04;;;;;;;3.08;2.50;;;;;;;;;;4998154;28;20176;-44
2021/05/05 14:08:30;;;;;;;2.03;1.87;;;;;;;;;;4991013;28;20175;-44
2021/05/05 14:10:55;;;;;;;4.10;2.00;;;;;;;;;;4993600;28;20674;-44
2021/05/05 14:13:21;;;;;;;2.43;2.10;;;;;;;;;;4992165;28;20598;-44
2021/05/05 14:15:48;;;;;;;2.20;2.10;;;;;;;;;;4997736;28;20185;-43
2021/05/05 14:18:13;;;;;;;1.83;1.73;;;;;;;;;;4997883;28;20267;-43
2021/05/05 14:20:38;;;;;;;1.63;1.40;;;;;;;;;;5000765;28;21102;-45
2021/05/05 14:23:03;;;;;;;1.40;1.40;;;;;;;;;;4999194;28;20197;-42
2021/05/05 14:25:29;;;;;;;1.20;1.20;;;;;;;;;;4995607;28;20185;-42
2021/05/05 14:27:54;;;;;;;1.17;1.17;;;;;;;;;;4996989;28;20168;-44
2021/05/05 14:30:20;;;;;;;1.70;1.23;;;;;;;;;;4996139;28;20186;-43
2021/05/05 14:32:45;;;;;;;1.70;1.60;;;;;;;;;;5001948;28;20263;-43
2021/05/05 14:35:13;;;;;;;1.60;1.50;;;;;;;;;;4999631;28;20177;-44
2021/05/05 14:37:38;;;;;;;1.27;1.17;;;;;;;;;;4997875;28;20183;-44
2021/05/05 14:40:04;;;;;;;1.00;1.00;;;;;;;;;;5002497;28;20592;-44
2021/05/05 14:42:35;;;;;;;1.40;1.30;;;;;;;;;;5006400;28;20438;-44
2021/05/05 14:45:21;;;;;;;2.03;1.40;;;;;;;;;;5006437;28;20688;-45
2021/05/05 14:48:07;;;;;;;1.07;1.07;;;;;;;;;;5004372;28;20607;-44
2021/05/05 14:50:33;;;;;;;3.13;1.20;;;;;;;;;;5005009;28;20567;-44
2021/05/05 14:52:58;;;;;;;1.57;1.47;;;;;;;;;;5004794;28;20602;-43
2021/05/05 14:55:23;;;;;;;1.20;1.17;;;;;;;;;;5006913;28;20750;-44
2021/05/05 14:57:56;;;;;;;1.33;1.23;;;;;;;;;;5010004;28;20257;-44
2021/05/05 15:00:21;;;;;;;2.40;1.10;;;;;;;;;;5010037;28;20278;-44